sensor_id;sensor_type;location;lat;lon;timestamp;temperature;humidity
10175;DHT22;18221;38.704;0.152;2023-07-31T00:13:12;27.70;99.90
10175;DHT22;18221;38.704;0.152;2023-07-31T00:15:40;27.50;99.90
10175;DHT22;18221;38.704;0.152;2023-07-31T00:18:08;27.60;99.90
10175;DHT22;18221;38.704;0.152;2023-07-31T00:20:37;27.60;99.90
10175;DHT22;18221;38.704;0.152;2023-07-31T00:23:05;27.60;99.90
10175;DHT22;18221;38.704;0.152;2023-07-31T00:25:33;27.60;99.90
10175;DHT22;18221;38.704;0.152;2023-07-31T00:28:01;27.60;99.90
10175;DHT22;18221;38.704;0.152;2023-07-31T00:30:31;27.60;99.90
10175;DHT22;18221;38.704;0.152;2023-07-31T00:32:59;27.60;99.90
10175;DHT22;18221;38.704;0.152;2023-07-31T00:35:28;27.60;99.90
10175;DHT22;18221;38.704;0.152;2023-07-31T00:37:59;27.50;99.90
10175;DHT22;18221;38.704;0.152;2023-07-31T00:40:27;27.50;99.90
10175;DHT22;18221;38.704;0.152;2023-07-31T00:42:55;27.50;99.90
10175;DHT22;18221;38.704;0.152;2023-07-31T00:45:24;27.50;99.90
10175;DHT22;18221;38.704;0.152;2023-07-31T00:47:54;27.50;99.90
10175;DHT22;18221;38.704;0.152;2023-07-31T00:50:24;27.50;99.90
10175;DHT22;18221;38.704;0.152;2023-07-31T00:52:53;27.40;99.90
10175;DHT22;18221;38.704;0.152;2023-07-31T00:55:21;27.50;99.90
10175;DHT22;18221;38.704;0.152;2023-07-31T00:57:51;27.50;99.90
10175;DHT22;18221;38.704;0.152;2023-07-31T01:00:22;27.40;99.90
10175;DHT22;18221;38.704;0.152;2023-07-31T01:02:50;27.50;99.90
10175;DHT22;18221;38.704;0.152;2023-07-31T01:05:28;27.50;99.90
10175;DHT22;18221;38.704;0.152;2023-07-31T01:08:07;28.00;99.90
10175;DHT22;18221;38.704;0.152;2023-07-31T01:10:49;27.50;99.90
10175;DHT22;18221;38.704;0.152;2023-07-31T01:13:22;27.50;99.90
10175;DHT22;18221;38.704;0.152;2023-07-31T01:15:50;27.40;99.90
10175;DHT22;18221;38.704;0.152;2023-07-31T01:18:18;27.40;99.90
10175;DHT22;18221;38.704;0.152;2023-07-31T01:20:57;27.40;99.90
10175;DHT22;18221;38.704;0.152;2023-07-31T01:23:46;27.40;99.90
10175;DHT22;18221;38.704;0.152;2023-07-31T01:26:37;27.40;99.90
10175;DHT22;18221;38.704;0.152;2023-07-31T01:29:10;27.40;99.90
10175;DHT22;18221;38.704;0.152;2023-07-31T01:31:48;27.50;99.90
10175;DHT22;18221;38.704;0.152;2023-07-31T01:34:21;27.40;99.90
10175;DHT22;18221;38.704;0.152;2023-07-31T01:36:50;27.40;99.90
10175;DHT22;18221;38.704;0.152;2023-07-31T01:39:20;27.40;99.90
10175;DHT22;18221;38.704;0.152;2023-07-31T01:41:50;27.40;99.90
10175;DHT22;18221;38.704;0.152;2023-07-31T01:44:18;27.40;99.90
10175;DHT22;18221;38.704;0.152;2023-07-31T01:46:47;27.40;99.90
10175;DHT22;18221;38.704;0.152;2023-07-31T01:49:15;27.40;99.90
10175;DHT22;18221;38.704;0.152;2023-07-31T01:51:43;27.40;99.90
10175;DHT22;18221;38.704;0.152;2023-07-31T01:54:11;27.40;99.90
10175;DHT22;18221;38.704;0.152;2023-07-31T01:56:39;27.40;99.90
10175;DHT22;18221;38.704;0.152;2023-07-31T01:59:09;27.40;99.90
10175;DHT22;18221;38.704;0.152;2023-07-31T02:01:37;27.40;99.90
10175;DHT22;18221;38.704;0.152;2023-07-31T02:04:06;27.30;99.90
10175;DHT22;18221;38.704;0.152;2023-07-31T02:06:34;27.30;99.90
10175;DHT22;18221;38.704;0.152;2023-07-31T02:09:03;27.30;99.90
10175;DHT22;18221;38.704;0.152;2023-07-31T02:11:31;27.20;99.90
10175;DHT22;18221;38.704;0.152;2023-07-31T02:13:59;27.20;99.90
10175;DHT22;18221;38.704;0.152;2023-07-31T02:16:29;27.20;99.90
10175;DHT22;18221;38.704;0.152;2023-07-31T02:18:57;27.20;99.90
10175;DHT22;18221;38.704;0.152;2023-07-31T02:21:25;27.10;99.90
10175;DHT22;18221;38.704;0.152;2023-07-31T02:23:54;27.20;99.90
10175;DHT22;18221;38.704;0.152;2023-07-31T02:26:22;27.20;99.90
10175;DHT22;18221;38.704;0.152;2023-07-31T02:28:50;27.20;99.90
10175;DHT22;18221;38.704;0.152;2023-07-31T02:31:19;27.20;99.90
10175;DHT22;18221;38.704;0.152;2023-07-31T02:33:48;27.20;99.90
10175;DHT22;18221;38.704;0.152;2023-07-31T02:36:16;27.10;99.90
10175;DHT22;18221;38.704;0.152;2023-07-31T02:38:45;27.20;99.90
10175;DHT22;18221;38.704;0.152;2023-07-31T02:41:13;27.10;99.90
10175;DHT22;18221;38.704;0.152;2023-07-31T02:43:43;27.10;99.90
10175;DHT22;18221;38.704;0.152;2023-07-31T02:46:12;27.10;99.90
10175;DHT22;18221;38.704;0.152;2023-07-31T02:48:40;27.00;99.90
10175;DHT22;18221;38.704;0.152;2023-07-31T02:51:10;27.00;99.90
10175;DHT22;18221;38.704;0.152;2023-07-31T02:53:38;27.00;99.90
10175;DHT22;18221;38.704;0.152;2023-07-31T02:56:06;27.00;99.90
10175;DHT22;18221;38.704;0.152;2023-07-31T02:58:34;27.00;99.90
10175;DHT22;18221;38.704;0.152;2023-07-31T03:01:03;27.00;99.90
10175;DHT22;18221;38.704;0.152;2023-07-31T03:03:31;27.00;99.90
10175;DHT22;18221;38.704;0.152;2023-07-31T03:05:59;27.00;99.90
10175;DHT22;18221;38.704;0.152;2023-07-31T03:08:29;27.00;99.90
10175;DHT22;18221;38.704;0.152;2023-07-31T03:11:00;27.00;99.90
10175;DHT22;18221;38.704;0.152;2023-07-31T03:13:28;27.00;99.90
10175;DHT22;18221;38.704;0.152;2023-07-31T03:15:56;27.00;99.90
10175;DHT22;18221;38.704;0.152;2023-07-31T03:18:24;27.00;99.90
10175;DHT22;18221;38.704;0.152;2023-07-31T03:20:52;27.00;99.90
10175;DHT22;18221;38.704;0.152;2023-07-31T03:23:22;27.00;99.90
10175;DHT22;18221;38.704;0.152;2023-07-31T03:25:59;27.00;99.90
10175;DHT22;18221;38.704;0.152;2023-07-31T03:28:29;27.00;99.90
10175;DHT22;18221;38.704;0.152;2023-07-31T03:30:57;27.00;99.90
10175;DHT22;18221;38.704;0.152;2023-07-31T03:33:26;27.00;99.90
10175;DHT22;18221;38.704;0.152;2023-07-31T03:35:54;27.00;99.90
10175;DHT22;18221;38.704;0.152;2023-07-31T03:38:22;27.00;99.90
10175;DHT22;18221;38.704;0.152;2023-07-31T03:40:50;27.00;99.90
10175;DHT22;18221;38.704;0.152;2023-07-31T03:43:20;26.90;99.90
10175;DHT22;18221;38.704;0.152;2023-07-31T03:45:48;26.90;99.90
10175;DHT22;18221;38.704;0.152;2023-07-31T03:48:16;26.90;99.90
10175;DHT22;18221;38.704;0.152;2023-07-31T03:50:45;26.90;99.90
10175;DHT22;18221;38.704;0.152;2023-07-31T03:53:13;26.90;99.90
10175;DHT22;18221;38.704;0.152;2023-07-31T03:55:42;26.90;99.90
10175;DHT22;18221;38.704;0.152;2023-07-31T03:58:10;26.90;99.90
10175;DHT22;18221;38.704;0.152;2023-07-31T04:00:40;26.90;99.90
10175;DHT22;18221;38.704;0.152;2023-07-31T04:03:09;26.90;99.90
10175;DHT22;18221;38.704;0.152;2023-07-31T04:05:38;26.80;99.90
10175;DHT22;18221;38.704;0.152;2023-07-31T04:08:07;26.90;99.90
10175;DHT22;18221;38.704;0.152;2023-07-31T04:10:35;26.80;99.90
10175;DHT22;18221;38.704;0.152;2023-07-31T04:13:03;26.80;99.90
10175;DHT22;18221;38.704;0.152;2023-07-31T04:15:31;26.80;99.90
10175;DHT22;18221;38.704;0.152;2023-07-31T04:18:01;26.80;99.90
10175;DHT22;18221;38.704;0.152;2023-07-31T04:20:29;26.80;99.90
10175;DHT22;18221;38.704;0.152;2023-07-31T04:22:57;26.80;99.90
10175;DHT22;18221;38.704;0.152;2023-07-31T04:25:25;26.80;99.90
10175;DHT22;18221;38.704;0.152;2023-07-31T04:27:54;26.70;99.90
10175;DHT22;18221;38.704;0.152;2023-07-31T04:30:22;26.70;99.90
10175;DHT22;18221;38.704;0.152;2023-07-31T04:32:50;26.70;99.90
10175;DHT22;18221;38.704;0.152;2023-07-31T04:35:19;26.70;99.90
10175;DHT22;18221;38.704;0.152;2023-07-31T04:37:47;26.70;99.90
10175;DHT22;18221;38.704;0.152;2023-07-31T04:40:16;26.70;99.90
10175;DHT22;18221;38.704;0.152;2023-07-31T04:42:44;26.70;99.90
10175;DHT22;18221;38.704;0.152;2023-07-31T04:45:12;26.70;99.90
10175;DHT22;18221;38.704;0.152;2023-07-31T04:47:41;26.70;99.90
10175;DHT22;18221;38.704;0.152;2023-07-31T04:50:10;26.70;99.90
10175;DHT22;18221;38.704;0.152;2023-07-31T04:52:39;26.70;99.90
10175;DHT22;18221;38.704;0.152;2023-07-31T04:55:08;26.70;99.90
10175;DHT22;18221;38.704;0.152;2023-07-31T04:57:36;26.70;99.90
10175;DHT22;18221;38.704;0.152;2023-07-31T05:00:06;26.80;99.90
10175;DHT22;18221;38.704;0.152;2023-07-31T05:02:35;26.80;99.90
10175;DHT22;18221;38.704;0.152;2023-07-31T05:05:03;26.80;99.90
10175;DHT22;18221;38.704;0.152;2023-07-31T05:07:32;26.80;99.90
10175;DHT22;18221;38.704;0.152;2023-07-31T05:10:02;26.80;99.90
10175;DHT22;18221;38.704;0.152;2023-07-31T05:12:30;26.80;99.90
10175;DHT22;18221;38.704;0.152;2023-07-31T05:14:58;26.80;99.90
10175;DHT22;18221;38.704;0.152;2023-07-31T05:17:26;26.80;99.90
10175;DHT22;18221;38.704;0.152;2023-07-31T05:19:55;26.80;99.90
10175;DHT22;18221;38.704;0.152;2023-07-31T05:22:23;26.80;99.90
10175;DHT22;18221;38.704;0.152;2023-07-31T05:24:51;26.80;99.90
10175;DHT22;18221;38.704;0.152;2023-07-31T05:27:21;26.80;99.90
10175;DHT22;18221;38.704;0.152;2023-07-31T05:29:49;26.80;99.90
10175;DHT22;18221;38.704;0.152;2023-07-31T05:32:17;26.80;99.90
10175;DHT22;18221;38.704;0.152;2023-07-31T05:34:46;26.80;99.90
10175;DHT22;18221;38.704;0.152;2023-07-31T05:37:14;26.70;99.90
10175;DHT22;18221;38.704;0.152;2023-07-31T05:39:42;26.80;99.90
10175;DHT22;18221;38.704;0.152;2023-07-31T05:42:10;26.80;99.90
10175;DHT22;18221;38.704;0.152;2023-07-31T05:44:40;26.80;99.90
10175;DHT22;18221;38.704;0.152;2023-07-31T05:47:08;26.80;99.90
10175;DHT22;18221;38.704;0.152;2023-07-31T05:49:36;26.80;99.90
10175;DHT22;18221;38.704;0.152;2023-07-31T05:52:05;26.80;99.90
10175;DHT22;18221;38.704;0.152;2023-07-31T05:54:34;26.90;99.90
10175;DHT22;18221;38.704;0.152;2023-07-31T05:57:02;26.90;99.90
10175;DHT22;18221;38.704;0.152;2023-07-31T05:59:30;26.80;99.90
10175;DHT22;18221;38.704;0.152;2023-07-31T06:02:00;26.80;99.90
10175;DHT22;18221;38.704;0.152;2023-07-31T06:04:28;26.80;99.90
10175;DHT22;18221;38.704;0.152;2023-07-31T06:06:56;26.80;99.90
10175;DHT22;18221;38.704;0.152;2023-07-31T06:09:24;26.80;99.90
10175;DHT22;18221;38.704;0.152;2023-07-31T06:11:53;26.80;99.90
10175;DHT22;18221;38.704;0.152;2023-07-31T06:14:21;26.80;99.90
10175;DHT22;18221;38.704;0.152;2023-07-31T06:16:49;26.80;99.90
10175;DHT22;18221;38.704;0.152;2023-07-31T06:19:19;26.80;99.90
10175;DHT22;18221;38.704;0.152;2023-07-31T06:21:49;26.90;99.90
10175;DHT22;18221;38.704;0.152;2023-07-31T06:24:17;26.90;99.90
10175;DHT22;18221;38.704;0.152;2023-07-31T06:26:46;26.90;99.90
10175;DHT22;18221;38.704;0.152;2023-07-31T06:29:15;26.90;99.90
10175;DHT22;18221;38.704;0.152;2023-07-31T06:31:43;26.90;99.90
10175;DHT22;18221;38.704;0.152;2023-07-31T06:34:11;26.90;99.90
10175;DHT22;18221;38.704;0.152;2023-07-31T06:36:41;26.90;99.90
10175;DHT22;18221;38.704;0.152;2023-07-31T06:39:12;27.00;99.90
10175;DHT22;18221;38.704;0.152;2023-07-31T06:41:41;27.00;99.90
10175;DHT22;18221;38.704;0.152;2023-07-31T06:44:09;27.00;99.90
10175;DHT22;18221;38.704;0.152;2023-07-31T06:46:38;27.10;99.90
10175;DHT22;18221;38.704;0.152;2023-07-31T06:49:06;27.10;99.90
10175;DHT22;18221;38.704;0.152;2023-07-31T06:51:34;27.10;99.90
10175;DHT22;18221;38.704;0.152;2023-07-31T06:54:05;27.20;99.90
10175;DHT22;18221;38.704;0.152;2023-07-31T06:56:33;27.20;99.90
10175;DHT22;18221;38.704;0.152;2023-07-31T06:59:02;27.30;99.90
10175;DHT22;18221;38.704;0.152;2023-07-31T07:01:30;26.80;99.90
10175;DHT22;18221;38.704;0.152;2023-07-31T07:03:58;27.30;99.90
10175;DHT22;18221;38.704;0.152;2023-07-31T07:06:26;27.30;99.90
10175;DHT22;18221;38.704;0.152;2023-07-31T07:08:55;27.30;99.90
10175;DHT22;18221;38.704;0.152;2023-07-31T07:11:24;27.30;99.90
10175;DHT22;18221;38.704;0.152;2023-07-31T07:13:52;27.40;99.90
10175;DHT22;18221;38.704;0.152;2023-07-31T07:16:21;27.40;99.90
10175;DHT22;18221;38.704;0.152;2023-07-31T07:18:49;27.50;99.90
10175;DHT22;18221;38.704;0.152;2023-07-31T07:21:17;27.50;99.90
10175;DHT22;18221;38.704;0.152;2023-07-31T07:23:45;27.70;99.90
10175;DHT22;18221;38.704;0.152;2023-07-31T07:26:13;27.70;99.90
10175;DHT22;18221;38.704;0.152;2023-07-31T07:28:43;27.80;99.90
10175;DHT22;18221;38.704;0.152;2023-07-31T07:31:11;27.80;99.90
10175;DHT22;18221;38.704;0.152;2023-07-31T07:33:39;27.90;99.90
10175;DHT22;18221;38.704;0.152;2023-07-31T07:36:07;27.90;99.90
10175;DHT22;18221;38.704;0.152;2023-07-31T07:38:35;28.00;99.90
10175;DHT22;18221;38.704;0.152;2023-07-31T07:41:05;28.00;99.90
10175;DHT22;18221;38.704;0.152;2023-07-31T07:43:33;28.00;99.90
10175;DHT22;18221;38.704;0.152;2023-07-31T07:46:03;28.00;99.90
10175;DHT22;18221;38.704;0.152;2023-07-31T07:48:31;27.80;99.90
10175;DHT22;18221;38.704;0.152;2023-07-31T07:50:59;27.80;99.90
10175;DHT22;18221;38.704;0.152;2023-07-31T07:53:27;27.70;99.90
10175;DHT22;18221;38.704;0.152;2023-07-31T07:55:55;27.70;99.90
10175;DHT22;18221;38.704;0.152;2023-07-31T07:58:23;27.70;99.90
10175;DHT22;18221;38.704;0.152;2023-07-31T08:00:51;27.60;99.90
10175;DHT22;18221;38.704;0.152;2023-07-31T08:03:21;27.60;99.90
10175;DHT22;18221;38.704;0.152;2023-07-31T08:05:49;27.60;99.90
10175;DHT22;18221;38.704;0.152;2023-07-31T08:08:17;27.60;99.90
10175;DHT22;18221;38.704;0.152;2023-07-31T08:10:46;27.60;99.90
10175;DHT22;18221;38.704;0.152;2023-07-31T08:13:14;27.60;99.90
10175;DHT22;18221;38.704;0.152;2023-07-31T08:15:42;27.60;99.90
10175;DHT22;18221;38.704;0.152;2023-07-31T08:18:10;27.80;99.90
10175;DHT22;18221;38.704;0.152;2023-07-31T08:20:40;28.00;99.90
10175;DHT22;18221;38.704;0.152;2023-07-31T08:23:09;28.20;99.90
10175;DHT22;18221;38.704;0.152;2023-07-31T08:25:37;28.50;99.90
10175;DHT22;18221;38.704;0.152;2023-07-31T08:28:06;28.70;99.90
10175;DHT22;18221;38.704;0.152;2023-07-31T08:30:34;28.80;99.90
10175;DHT22;18221;38.704;0.152;2023-07-31T08:33:02;28.90;99.90
10175;DHT22;18221;38.704;0.152;2023-07-31T08:35:31;28.90;99.90
10175;DHT22;18221;38.704;0.152;2023-07-31T08:38:01;28.90;99.90
10175;DHT22;18221;38.704;0.152;2023-07-31T08:40:29;28.80;99.90
10175;DHT22;18221;38.704;0.152;2023-07-31T08:42:57;28.70;99.90
10175;DHT22;18221;38.704;0.152;2023-07-31T08:45:28;28.60;99.90
10175;DHT22;18221;38.704;0.152;2023-07-31T08:47:57;28.50;99.90
10175;DHT22;18221;38.704;0.152;2023-07-31T08:50:26;28.30;99.90
10175;DHT22;18221;38.704;0.152;2023-07-31T08:52:54;28.30;99.90
10175;DHT22;18221;38.704;0.152;2023-07-31T08:55:25;28.20;99.90
10175;DHT22;18221;38.704;0.152;2023-07-31T08:57:55;28.10;99.90
10175;DHT22;18221;38.704;0.152;2023-07-31T09:00:25;28.10;99.90
10175;DHT22;18221;38.704;0.152;2023-07-31T09:02:59;28.10;99.90
10175;DHT22;18221;38.704;0.152;2023-07-31T09:05:30;28.10;99.90
10175;DHT22;18221;38.704;0.152;2023-07-31T09:08:00;28.00;99.90
10175;DHT22;18221;38.704;0.152;2023-07-31T09:10:33;28.00;99.90
10175;DHT22;18221;38.704;0.152;2023-07-31T09:13:08;28.10;99.90
10175;DHT22;18221;38.704;0.152;2023-07-31T09:15:37;28.10;99.90
10175;DHT22;18221;38.704;0.152;2023-07-31T09:18:07;28.10;99.90
10175;DHT22;18221;38.704;0.152;2023-07-31T09:20:35;28.10;99.90
10175;DHT22;18221;38.704;0.152;2023-07-31T09:23:08;28.10;99.90
10175;DHT22;18221;38.704;0.152;2023-07-31T09:25:39;28.10;99.90
10175;DHT22;18221;38.704;0.152;2023-07-31T09:28:11;28.00;99.90
10175;DHT22;18221;38.704;0.152;2023-07-31T09:30:47;28.10;99.90
10175;DHT22;18221;38.704;0.152;2023-07-31T09:33:16;28.00;99.90
10175;DHT22;18221;38.704;0.152;2023-07-31T09:35:46;28.00;99.90
10175;DHT22;18221;38.704;0.152;2023-07-31T09:38:15;28.00;99.90
10175;DHT22;18221;38.704;0.152;2023-07-31T09:40:46;28.00;99.90
10175;DHT22;18221;38.704;0.152;2023-07-31T09:43:18;28.00;99.90
10175;DHT22;18221;38.704;0.152;2023-07-31T09:45:47;28.00;99.90
10175;DHT22;18221;38.704;0.152;2023-07-31T09:48:22;27.90;99.90
10175;DHT22;18221;38.704;0.152;2023-07-31T09:50:53;27.80;99.90
10175;DHT22;18221;38.704;0.152;2023-07-31T09:53:29;27.80;99.90
10175;DHT22;18221;38.704;0.152;2023-07-31T09:56:01;28.00;99.90
10175;DHT22;18221;38.704;0.152;2023-07-31T09:58:34;27.70;99.90
10175;DHT22;18221;38.704;0.152;2023-07-31T10:01:03;27.80;99.90
10175;DHT22;18221;38.704;0.152;2023-07-31T10:03:32;27.70;99.90
10175;DHT22;18221;38.704;0.152;2023-07-31T10:06:02;27.70;99.90
10175;DHT22;18221;38.704;0.152;2023-07-31T10:08:32;27.70;99.90
10175;DHT22;18221;38.704;0.152;2023-07-31T10:11:06;27.70;99.90
10175;DHT22;18221;38.704;0.152;2023-07-31T10:13:37;27.70;99.90
10175;DHT22;18221;38.704;0.152;2023-07-31T10:16:06;27.70;99.90
10175;DHT22;18221;38.704;0.152;2023-07-31T10:18:35;27.70;99.90
10175;DHT22;18221;38.704;0.152;2023-07-31T10:21:06;27.80;99.90
10175;DHT22;18221;38.704;0.152;2023-07-31T10:23:34;27.90;99.90
10175;DHT22;18221;38.704;0.152;2023-07-31T10:26:08;28.00;99.90
10175;DHT22;18221;38.704;0.152;2023-07-31T10:28:37;28.00;99.90
10175;DHT22;18221;38.704;0.152;2023-07-31T10:31:07;28.10;99.90
10175;DHT22;18221;38.704;0.152;2023-07-31T10:33:36;28.20;99.90
10175;DHT22;18221;38.704;0.152;2023-07-31T10:36:16;28.20;99.90
10175;DHT22;18221;38.704;0.152;2023-07-31T10:38:46;28.30;99.90
10175;DHT22;18221;38.704;0.152;2023-07-31T10:41:18;28.40;99.90
10175;DHT22;18221;38.704;0.152;2023-07-31T10:43:47;28.40;99.90
10175;DHT22;18221;38.704;0.152;2023-07-31T10:46:15;28.60;99.90
10175;DHT22;18221;38.704;0.152;2023-07-31T10:48:43;28.60;99.90
10175;DHT22;18221;38.704;0.152;2023-07-31T10:51:12;28.60;99.90
10175;DHT22;18221;38.704;0.152;2023-07-31T10:53:42;28.70;99.90
10175;DHT22;18221;38.704;0.152;2023-07-31T10:56:10;28.90;99.90
10175;DHT22;18221;38.704;0.152;2023-07-31T10:58:40;29.00;99.90
10175;DHT22;18221;38.704;0.152;2023-07-31T11:01:12;29.00;99.90
10175;DHT22;18221;38.704;0.152;2023-07-31T11:03:46;29.10;99.90
10175;DHT22;18221;38.704;0.152;2023-07-31T11:06:18;29.20;99.90
10175;DHT22;18221;38.704;0.152;2023-07-31T11:08:47;29.40;99.90
10175;DHT22;18221;38.704;0.152;2023-07-31T11:11:18;29.50;99.90
10175;DHT22;18221;38.704;0.152;2023-07-31T11:13:50;29.50;99.90
10175;DHT22;18221;38.704;0.152;2023-07-31T11:16:20;29.40;99.90
10175;DHT22;18221;38.704;0.152;2023-07-31T11:18:50;30.90;99.90
10175;DHT22;18221;38.704;0.152;2023-07-31T11:21:21;29.50;99.90
10175;DHT22;18221;38.704;0.152;2023-07-31T11:23:52;29.60;99.90
10175;DHT22;18221;38.704;0.152;2023-07-31T11:26:24;29.60;99.90
10175;DHT22;18221;38.704;0.152;2023-07-31T11:28:54;29.70;99.90
10175;DHT22;18221;38.704;0.152;2023-07-31T11:31:22;29.70;99.90
10175;DHT22;18221;38.704;0.152;2023-07-31T11:33:50;29.80;99.90
10175;DHT22;18221;38.704;0.152;2023-07-31T11:36:31;29.90;99.90
10175;DHT22;18221;38.704;0.152;2023-07-31T11:39:05;30.00;99.90
10175;DHT22;18221;38.704;0.152;2023-07-31T11:41:34;30.10;99.90
10175;DHT22;18221;38.704;0.152;2023-07-31T11:44:04;30.10;99.90
10175;DHT22;18221;38.704;0.152;2023-07-31T11:46:33;30.00;99.90
10175;DHT22;18221;38.704;0.152;2023-07-31T11:49:02;29.80;99.90
10175;DHT22;18221;38.704;0.152;2023-07-31T11:51:30;29.50;99.90
10175;DHT22;18221;38.704;0.152;2023-07-31T11:54:02;30.10;99.90
10175;DHT22;18221;38.704;0.152;2023-07-31T11:56:31;30.00;99.90
10175;DHT22;18221;38.704;0.152;2023-07-31T11:59:00;30.10;99.90
10175;DHT22;18221;38.704;0.152;2023-07-31T12:01:32;30.20;99.90
10175;DHT22;18221;38.704;0.152;2023-07-31T12:04:00;30.00;99.90
10175;DHT22;18221;38.704;0.152;2023-07-31T12:06:35;30.10;99.90
10175;DHT22;18221;38.704;0.152;2023-07-31T12:09:04;30.00;99.90
10175;DHT22;18221;38.704;0.152;2023-07-31T12:11:42;29.90;99.90
10175;DHT22;18221;38.704;0.152;2023-07-31T12:14:21;30.10;99.90
10175;DHT22;18221;38.704;0.152;2023-07-31T12:16:54;30.20;99.90
10175;DHT22;18221;38.704;0.152;2023-07-31T12:19:23;30.30;99.90
10175;DHT22;18221;38.704;0.152;2023-07-31T12:21:53;30.30;99.90
10175;DHT22;18221;38.704;0.152;2023-07-31T12:24:22;30.30;99.90
10175;DHT22;18221;38.704;0.152;2023-07-31T12:26:51;30.50;99.90
10175;DHT22;18221;38.704;0.152;2023-07-31T12:29:22;30.50;99.90
10175;DHT22;18221;38.704;0.152;2023-07-31T12:31:50;30.50;99.90
10175;DHT22;18221;38.704;0.152;2023-07-31T12:34:20;30.40;99.90
10175;DHT22;18221;38.704;0.152;2023-07-31T12:36:48;30.20;99.90
10175;DHT22;18221;38.704;0.152;2023-07-31T12:39:16;30.10;99.90
10175;DHT22;18221;38.704;0.152;2023-07-31T12:41:45;30.00;99.90
10175;DHT22;18221;38.704;0.152;2023-07-31T12:44:13;29.80;99.90
10175;DHT22;18221;38.704;0.152;2023-07-31T12:46:42;29.60;99.90
10175;DHT22;18221;38.704;0.152;2023-07-31T12:49:11;29.60;99.90
10175;DHT22;18221;38.704;0.152;2023-07-31T12:51:39;29.60;99.90
10175;DHT22;18221;38.704;0.152;2023-07-31T12:54:07;29.50;99.90
10175;DHT22;18221;38.704;0.152;2023-07-31T12:56:35;29.50;99.90
10175;DHT22;18221;38.704;0.152;2023-07-31T12:59:03;29.50;99.90
10175;DHT22;18221;38.704;0.152;2023-07-31T13:01:32;29.50;99.90
10175;DHT22;18221;38.704;0.152;2023-07-31T13:04:01;29.50;99.90
10175;DHT22;18221;38.704;0.152;2023-07-31T13:06:29;29.50;99.90
10175;DHT22;18221;38.704;0.152;2023-07-31T13:08:58;29.50;99.90
10175;DHT22;18221;38.704;0.152;2023-07-31T13:11:26;29.70;99.90
10175;DHT22;18221;38.704;0.152;2023-07-31T13:13:54;29.80;99.90
10175;DHT22;18221;38.704;0.152;2023-07-31T13:16:22;30.00;99.90
10175;DHT22;18221;38.704;0.152;2023-07-31T13:18:51;30.10;99.90
10175;DHT22;18221;38.704;0.152;2023-07-31T13:21:21;30.40;99.90
10175;DHT22;18221;38.704;0.152;2023-07-31T13:23:49;30.50;99.90
10175;DHT22;18221;38.704;0.152;2023-07-31T13:26:17;30.60;99.90
10175;DHT22;18221;38.704;0.152;2023-07-31T13:28:45;30.80;99.90
10175;DHT22;18221;38.704;0.152;2023-07-31T13:31:13;30.70;99.90
10175;DHT22;18221;38.704;0.152;2023-07-31T13:33:42;30.80;99.90
10175;DHT22;18221;38.704;0.152;2023-07-31T13:36:10;30.80;99.90
10175;DHT22;18221;38.704;0.152;2023-07-31T13:38:41;30.80;99.90
10175;DHT22;18221;38.704;0.152;2023-07-31T13:41:09;30.80;99.90
10175;DHT22;18221;38.704;0.152;2023-07-31T13:43:38;30.80;99.90
10175;DHT22;18221;38.704;0.152;2023-07-31T13:46:07;30.80;99.90
10175;DHT22;18221;38.704;0.152;2023-07-31T13:48:36;30.70;99.90
10175;DHT22;18221;38.704;0.152;2023-07-31T13:51:05;30.80;99.90
10175;DHT22;18221;38.704;0.152;2023-07-31T13:53:33;30.80;99.90
10175;DHT22;18221;38.704;0.152;2023-07-31T13:56:03;31.50;99.90
10175;DHT22;18221;38.704;0.152;2023-07-31T13:58:33;31.00;99.90
10175;DHT22;18221;38.704;0.152;2023-07-31T14:01:01;30.90;99.90
10175;DHT22;18221;38.704;0.152;2023-07-31T14:03:30;31.00;99.90
10175;DHT22;18221;38.704;0.152;2023-07-31T14:05:59;30.90;99.90
10175;DHT22;18221;38.704;0.152;2023-07-31T14:08:27;30.70;99.90
10175;DHT22;18221;38.704;0.152;2023-07-31T14:10:56;30.70;99.90
10175;DHT22;18221;38.704;0.152;2023-07-31T14:13:26;30.80;99.90
10175;DHT22;18221;38.704;0.152;2023-07-31T14:15:55;30.90;99.90
10175;DHT22;18221;38.704;0.152;2023-07-31T14:18:23;30.90;99.90
10175;DHT22;18221;38.704;0.152;2023-07-31T14:20:52;31.00;99.90
10175;DHT22;18221;38.704;0.152;2023-07-31T14:23:20;30.90;99.90
10175;DHT22;18221;38.704;0.152;2023-07-31T14:25:48;30.80;99.90
10175;DHT22;18221;38.704;0.152;2023-07-31T14:28:17;30.80;99.90
10175;DHT22;18221;38.704;0.152;2023-07-31T14:30:46;30.80;99.90
10175;DHT22;18221;38.704;0.152;2023-07-31T14:33:14;30.80;99.90
10175;DHT22;18221;38.704;0.152;2023-07-31T14:35:43;30.80;99.90
10175;DHT22;18221;38.704;0.152;2023-07-31T14:38:11;30.70;99.90
10175;DHT22;18221;38.704;0.152;2023-07-31T14:40:39;30.80;99.90
10175;DHT22;18221;38.704;0.152;2023-07-31T14:43:07;31.00;99.90
10175;DHT22;18221;38.704;0.152;2023-07-31T14:45:35;31.00;99.90
10175;DHT22;18221;38.704;0.152;2023-07-31T14:48:05;30.90;99.90
10175;DHT22;18221;38.704;0.152;2023-07-31T14:50:33;31.50;99.90
10175;DHT22;18221;38.704;0.152;2023-07-31T14:53:02;30.70;99.90
10175;DHT22;18221;38.704;0.152;2023-07-31T14:55:30;30.70;99.90
10175;DHT22;18221;38.704;0.152;2023-07-31T14:57:58;30.80;99.90
10175;DHT22;18221;38.704;0.152;2023-07-31T15:00:27;30.80;99.90
10175;DHT22;18221;38.704;0.152;2023-07-31T15:02:55;31.00;99.90
10175;DHT22;18221;38.704;0.152;2023-07-31T15:05:25;31.00;99.90
10175;DHT22;18221;38.704;0.152;2023-07-31T15:07:56;31.00;99.90
10175;DHT22;18221;38.704;0.152;2023-07-31T15:10:24;31.10;99.90
10175;DHT22;18221;38.704;0.152;2023-07-31T15:12:52;31.10;99.90
10175;DHT22;18221;38.704;0.152;2023-07-31T15:15:21;31.20;99.90
10175;DHT22;18221;38.704;0.152;2023-07-31T15:17:49;31.10;99.90
10175;DHT22;18221;38.704;0.152;2023-07-31T15:20:18;31.00;99.90
10175;DHT22;18221;38.704;0.152;2023-07-31T15:22:47;31.00;99.90
10175;DHT22;18221;38.704;0.152;2023-07-31T15:25:16;30.90;99.90
10175;DHT22;18221;38.704;0.152;2023-07-31T15:27:44;30.90;99.90
10175;DHT22;18221;38.704;0.152;2023-07-31T15:30:12;30.90;99.90
10175;DHT22;18221;38.704;0.152;2023-07-31T15:32:41;30.70;99.90
10175;DHT22;18221;38.704;0.152;2023-07-31T15:35:14;30.60;99.90
10175;DHT22;18221;38.704;0.152;2023-07-31T15:37:42;30.60;99.90
10175;DHT22;18221;38.704;0.152;2023-07-31T15:40:12;30.60;99.90
10175;DHT22;18221;38.704;0.152;2023-07-31T15:42:40;30.60;99.90
10175;DHT22;18221;38.704;0.152;2023-07-31T15:45:09;30.60;99.90
10175;DHT22;18221;38.704;0.152;2023-07-31T15:47:37;30.60;99.90
10175;DHT22;18221;38.704;0.152;2023-07-31T15:50:07;30.60;99.90
10175;DHT22;18221;38.704;0.152;2023-07-31T15:52:35;29.90;99.90
10175;DHT22;18221;38.704;0.152;2023-07-31T15:55:04;30.60;99.90